Voyager — C6WC2 — position and weather

sailwx.info

Track history (hours):
 
Tides and Currents Weather Stations Pressure Air Temp Water Temp Dewpoint Dewpoint Depression Visibility Wind Speed Wind Dir Waves Ship Positions

Voyager

Last reported at 2016-Jun-22 06:23 UTC. Time now 2016-Jun-27 09:44 UTC.
Position N 59°60' E 004°47'.

Length 151 m; draft 6 m.

Type: Ship. MMSI: 309695000.

Date/timePositionNaut miles runAvg speedWind from/ knotsBaromVisibWave heightAir tempDewpointWater temp
2016-Jun-22 06:23N 59°60' E 004°47'9311.8
2016-Jun-21 22:31N 58°28' E 004°14'38613.8
2016-Jun-20 18:33N 52°10' E 001°56'1313.5
2016-Jun-20 17:33N 52°02' E 001°38'10 9.9
2016-Jun-20 16:33N 51°56' E 001°25'6 6.1
2016-Jun-20 15:33N 51°57' E 001°15'0 0.0
2016-Jun-20 14:33N 51°57' E 001°15'0 0.0
2016-Jun-20 13:33N 51°57' E 001°15'0 0.0
2016-Jun-20 12:33N 51°57' E 001°15'0 0.0
2016-Jun-20 11:33N 51°57' E 001°15'0 0.0
2016-Jun-20 10:33N 51°57' E 001°15'0 0.0
2016-Jun-20 09:33N 51°57' E 001°15'0 0.0
2016-Jun-20 08:33N 51°57' E 001°15'0 0.0
2016-Jun-20 07:33N 51°57' E 001°15'0 0.1
2016-Jun-20 06:34N 51°57' E 001°16'7 6.7
2016-Jun-20 05:34N 51°56' E 001°26'1010.0
2016-Jun-20 04:33N 51°52' E 001°41'1 0.9
2016-Jun-20 03:33N 51°51' E 001°40'5 5.4
2016-Jun-20 02:33N 51°50' E 001°48'5 5.4
2016-Jun-20 01:33N 51°45' E 001°49'7 7.0
2016-Jun-20 00:33N 51°38' E 001°50'7 7.0
2016-Jun-19 23:33N 51°31' E 001°54'1110.7
2016-Jun-19 22:33N 51°23' E 002°05'5 5.1
2016-Jun-19 21:33N 51°20' E 001°58'7 6.6
2016-Jun-19 20:33N 51°15' E 001°52'7 6.6
2016-Jun-19 19:33N 51°10' E 001°45'7 6.7
2016-Jun-19 18:33N 51°05' E 001°38'7 6.5
2016-Jun-19 17:33N 50°59' E 001°33'7 6.6
2016-Jun-19 16:33N 50°53' E 001°29'6 6.5
2016-Jun-19 15:33N 50°47' E 001°26'7 6.9
2016-Jun-19 14:33N 50°41' E 001°21'41 6.8
2016-Jun-19 08:31N 50°21' E 000°25'7 7.1
2016-Jun-19 07:33N 50°19' E 000°14'7 7.3
2016-Jun-19 06:33N 50°17' E 000°03'7 7.4
2016-Jun-19 05:33N 50°14' W 000°07'7 7.2
2016-Jun-19 04:33N 50°12' W 000°18'7 7.1
2016-Jun-19 03:33N 50°10' W 000°29'9 7.6
2016-Jun-19 02:21N 50°07' W 000°42'7 7.6
2016-Jun-19 01:27N 50°04' W 000°52'7 7.5
2016-Jun-19 00:33N 50°02' W 001°02'7 7.2
2016-Jun-18 23:33N 49°59' W 001°12'8 7.7
2016-Jun-18 22:33N 49°56' W 001°23'8 7.7
2016-Jun-18 21:33N 49°53' W 001°34'8 7.9
2016-Jun-18 20:32N 49°50' W 001°46'205 4.1
2016-Jun-16 18:33N 52°07' W 005°48'1111.4
2016-Jun-16 17:33N 52°18' W 005°44'11612.9
2016-Jun-16 08:33N 54°13' W 005°15'1313.0
2016-Jun-16 07:33N 54°26' W 005°13'1313.0
2016-Jun-16 06:33N 54°39' W 005°16'1313.4
2016-Jun-16 05:33N 54°51' W 005°26'2713.0
2016-Jun-16 03:30N 55°11' W 005°55'1212.9
2016-Jun-16 02:33N 55°21' W 006°08'1212.2
2016-Jun-16 01:34N 55°26' W 006°28'1211.8
2016-Jun-16 00:34N 55°34' W 006°42'1110.9
2016-Jun-15 23:33N 55°44' W 006°51'1211.7
2016-Jun-15 22:32N 55°56' W 006°56'105 4.0
2016-Jun-14 20:22N 57°37' W 006°03'1211.2
2016-Jun-14 19:20N 57°26' W 006°07'93 2.1
2016-Jun-12 23:26N 58°44' W 004°30'1011.7
2016-Jun-12 22:33N 58°43' W 004°10'1313.3
2016-Jun-12 21:33N 58°43' W 003°45'1414.4
2016-Jun-12 20:33N 58°43' W 003°17'1514.8
2016-Jun-12 19:33N 58°46' W 002°49'1411.4
2016-Jun-12 18:19N 58°59' W 002°40'810.6
2016-Jun-12 17:34N 59°01' W 002°55'2 1.9
2016-Jun-12 16:33N 58°60' W 002°58'0 0.0
2016-Jun-12 15:33N 58°60' W 002°58'0 0.0
2016-Jun-12 14:33N 58°60' W 002°58'0 0.0
2016-Jun-12 13:33N 58°60' W 002°58'0 0.0
2016-Jun-12 12:33N 58°60' W 002°58'0 0.0
2016-Jun-12 11:33N 58°60' W 002°58'0 0.0
2016-Jun-12 10:33N 58°60' W 002°58'0 0.0
2016-Jun-12 09:33N 58°60' W 002°58'0 0.0
2016-Jun-12 08:33N 58°60' W 002°58'0 0.0
2016-Jun-12 07:33N 58°60' W 002°58'0 0.0
2016-Jun-12 06:33N 58°60' W 002°58'  
Track history (hours):
 
Tides and Currents Weather Stations Pressure Air Temp Water Temp Dewpoint Dewpoint Depression Visibility Wind Speed Wind Dir Waves Ship Positions

Voyager

Last reported at 2016-Jun-22 06:23 UTC. Time now 2016-Jun-27 09:44 UTC.
Position N 59°60' E 004°47'.

Length 151 m; draft 6 m.

Type: Ship. MMSI: 309695000.

Date/timePositionNaut miles runAvg speedWind from/ knotsBaromVisibWave heightAir tempDewpointWater temp
2016-Jun-22 06:23N 59°60' E 004°47'9311.8
2016-Jun-21 22:31N 58°28' E 004°14'38613.8
2016-Jun-20 18:33N 52°10' E 001°56'1313.5
2016-Jun-20 17:33N 52°02' E 001°38'10 9.9
2016-Jun-20 16:33N 51°56' E 001°25'6 6.1
2016-Jun-20 15:33N 51°57' E 001°15'0 0.0
2016-Jun-20 14:33N 51°57' E 001°15'0 0.0
2016-Jun-20 13:33N 51°57' E 001°15'0 0.0
2016-Jun-20 12:33N 51°57' E 001°15'0 0.0
2016-Jun-20 11:33N 51°57' E 001°15'0 0.0
2016-Jun-20 10:33N 51°57' E 001°15'0 0.0
2016-Jun-20 09:33N 51°57' E 001°15'0 0.0
2016-Jun-20 08:33N 51°57' E 001°15'0 0.0
2016-Jun-20 07:33N 51°57' E 001°15'0 0.1
2016-Jun-20 06:34N 51°57' E 001°16'7 6.7
2016-Jun-20 05:34N 51°56' E 001°26'1010.0
2016-Jun-20 04:33N 51°52' E 001°41'1 0.9
2016-Jun-20 03:33N 51°51' E 001°40'5 5.4
2016-Jun-20 02:33N 51°50' E 001°48'5 5.4
2016-Jun-20 01:33N 51°45' E 001°49'7 7.0
2016-Jun-20 00:33N 51°38' E 001°50'7 7.0
2016-Jun-19 23:33N 51°31' E 001°54'1110.7
2016-Jun-19 22:33N 51°23' E 002°05'5 5.1
2016-Jun-19 21:33N 51°20' E 001°58'7 6.6
2016-Jun-19 20:33N 51°15' E 001°52'7 6.6
2016-Jun-19 19:33N 51°10' E 001°45'7 6.7
2016-Jun-19 18:33N 51°05' E 001°38'7 6.5
2016-Jun-19 17:33N 50°59' E 001°33'7 6.6
2016-Jun-19 16:33N 50°53' E 001°29'6 6.5
2016-Jun-19 15:33N 50°47' E 001°26'7 6.9
2016-Jun-19 14:33N 50°41' E 001°21'41 6.8
2016-Jun-19 08:31N 50°21' E 000°25'7 7.1
2016-Jun-19 07:33N 50°19' E 000°14'7 7.3
2016-Jun-19 06:33N 50°17' E 000°03'7 7.4
2016-Jun-19 05:33N 50°14' W 000°07'7 7.2
2016-Jun-19 04:33N 50°12' W 000°18'7 7.1
2016-Jun-19 03:33N 50°10' W 000°29'9 7.6
2016-Jun-19 02:21N 50°07' W 000°42'7 7.6
2016-Jun-19 01:27N 50°04' W 000°52'7 7.5
2016-Jun-19 00:33N 50°02' W 001°02'7 7.2
2016-Jun-18 23:33N 49°59' W 001°12'8 7.7
2016-Jun-18 22:33N 49°56' W 001°23'8 7.7
2016-Jun-18 21:33N 49°53' W 001°34'8 7.9
2016-Jun-18 20:32N 49°50' W 001°46'205 4.1
2016-Jun-16 18:33N 52°07' W 005°48'1111.4
2016-Jun-16 17:33N 52°18' W 005°44'11612.9
2016-Jun-16 08:33N 54°13' W 005°15'1313.0
2016-Jun-16 07:33N 54°26' W 005°13'1313.0
2016-Jun-16 06:33N 54°39' W 005°16'1313.4
2016-Jun-16 05:33N 54°51' W 005°26'2713.0
2016-Jun-16 03:30N 55°11' W 005°55'1212.9
2016-Jun-16 02:33N 55°21' W 006°08'1212.2
2016-Jun-16 01:34N 55°26' W 006°28'1211.8
2016-Jun-16 00:34N 55°34' W 006°42'1110.9
2016-Jun-15 23:33N 55°44' W 006°51'1211.7
2016-Jun-15 22:32N 55°56' W 006°56'105 4.0
2016-Jun-14 20:22N 57°37' W 006°03'1211.2
2016-Jun-14 19:20N 57°26' W 006°07'93 2.1
2016-Jun-12 23:26N 58°44' W 004°30'1011.7
2016-Jun-12 22:33N 58°43' W 004°10'1313.3
2016-Jun-12 21:33N 58°43' W 003°45'1414.4
2016-Jun-12 20:33N 58°43' W 003°17'1514.8
2016-Jun-12 19:33N 58°46' W 002°49'1411.4
2016-Jun-12 18:19N 58°59' W 002°40'810.6
2016-Jun-12 17:34N 59°01' W 002°55'2 1.9
2016-Jun-12 16:33N 58°60' W 002°58'0 0.0
2016-Jun-12 15:33N 58°60' W 002°58'0 0.0
2016-Jun-12 14:33N 58°60' W 002°58'0 0.0
2016-Jun-12 13:33N 58°60' W 002°58'0 0.0
2016-Jun-12 12:33N 58°60' W 002°58'0 0.0
2016-Jun-12 11:33N 58°60' W 002°58'0 0.0
2016-Jun-12 10:33N 58°60' W 002°58'0 0.0
2016-Jun-12 09:33N 58°60' W 002°58'0 0.0
2016-Jun-12 08:33N 58°60' W 002°58'0 0.0
2016-Jun-12 07:33N 58°60' W 002°58'0 0.0
2016-Jun-12 06:33N 58°60' W 002°58'  

Dump ship's entire track history